sensor_id;sensor_type;location;lat;lon;timestamp;P1;durP1;ratioP1;P2;durP2;ratioP2
21663;SDS011;10993;52.510;13.456;2024-02-26T00:04:08;17.33;;;10.90;;
21663;SDS011;10993;52.510;13.456;2024-02-26T00:09:08;15.77;;;9.93;;
21663;SDS011;10993;52.510;13.456;2024-02-26T00:14:10;18.33;;;10.20;;
21663;SDS011;10993;52.510;13.456;2024-02-26T00:19:11;21.33;;;10.85;;
21663;SDS011;10993;52.510;13.456;2024-02-26T00:24:11;17.00;;;10.25;;
21663;SDS011;10993;52.510;13.456;2024-02-26T00:29:13;20.13;;;11.32;;
21663;SDS011;10993;52.510;13.456;2024-02-26T00:34:13;19.00;;;10.90;;
21663;SDS011;10993;52.510;13.456;2024-02-26T00:39:13;13.98;;;8.82;;
21663;SDS011;10993;52.510;13.456;2024-02-26T00:44:15;15.73;;;9.20;;
21663;SDS011;10993;52.510;13.456;2024-02-26T00:49:15;14.50;;;8.20;;
21663;SDS011;10993;52.510;13.456;2024-02-26T00:54:16;10.02;;;5.85;;
21663;SDS011;10993;52.510;13.456;2024-02-26T00:59:17;10.95;;;6.60;;
21663;SDS011;10993;52.510;13.456;2024-02-26T01:04:18;13.55;;;7.15;;
21663;SDS011;10993;52.510;13.456;2024-02-26T01:09:18;15.52;;;8.02;;
21663;SDS011;10993;52.510;13.456;2024-02-26T01:14:20;14.73;;;7.63;;
21663;SDS011;10993;52.510;13.456;2024-02-26T01:19:20;11.07;;;7.20;;
21663;SDS011;10993;52.510;13.456;2024-02-26T01:24:21;14.68;;;7.47;;
21663;SDS011;10993;52.510;13.456;2024-02-26T01:29:22;13.82;;;7.53;;
21663;SDS011;10993;52.510;13.456;2024-02-26T01:34:23;11.90;;;6.68;;
21663;SDS011;10993;52.510;13.456;2024-02-26T01:39:23;14.07;;;7.65;;
21663;SDS011;10993;52.510;13.456;2024-02-26T01:44:25;11.27;;;6.65;;
21663;SDS011;10993;52.510;13.456;2024-02-26T01:49:26;10.40;;;6.43;;
21663;SDS011;10993;52.510;13.456;2024-02-26T01:54:28;11.65;;;6.22;;
21663;SDS011;10993;52.510;13.456;2024-02-26T01:59:31;9.77;;;6.00;;
21663;SDS011;10993;52.510;13.456;2024-02-26T02:04:32;9.45;;;6.20;;
21663;SDS011;10993;52.510;13.456;2024-02-26T02:09:32;12.85;;;6.05;;
21663;SDS011;10993;52.510;13.456;2024-02-26T02:14:34;8.77;;;5.70;;
21663;SDS011;10993;52.510;13.456;2024-02-26T02:19:34;11.50;;;6.57;;
21663;SDS011;10993;52.510;13.456;2024-02-26T02:24:36;10.73;;;6.20;;
21663;SDS011;10993;52.510;13.456;2024-02-26T02:29:36;15.50;;;6.38;;
21663;SDS011;10993;52.510;13.456;2024-02-26T02:34:37;10.65;;;5.43;;
21663;SDS011;10993;52.510;13.456;2024-02-26T02:39:39;9.70;;;5.38;;
21663;SDS011;10993;52.510;13.456;2024-02-26T02:44:39;8.88;;;5.40;;
21663;SDS011;10993;52.510;13.456;2024-02-26T02:49:39;9.57;;;4.78;;
21663;SDS011;10993;52.510;13.456;2024-02-26T02:54:41;9.05;;;5.25;;
21663;SDS011;10993;52.510;13.456;2024-02-26T02:59:42;8.20;;;4.97;;
21663;SDS011;10993;52.510;13.456;2024-02-26T03:04:43;7.72;;;4.38;;
21663;SDS011;10993;52.510;13.456;2024-02-26T03:09:44;6.75;;;4.25;;
21663;SDS011;10993;52.510;13.456;2024-02-26T03:14:45;7.00;;;4.17;;
21663;SDS011;10993;52.510;13.456;2024-02-26T03:19:45;9.00;;;5.03;;
21663;SDS011;10993;52.510;13.456;2024-02-26T03:24:54;9.35;;;5.32;;
21663;SDS011;10993;52.510;13.456;2024-02-26T03:29:54;9.57;;;5.00;;
21663;SDS011;10993;52.510;13.456;2024-02-26T03:34:55;10.35;;;5.30;;
21663;SDS011;10993;52.510;13.456;2024-02-26T03:39:57;9.85;;;5.40;;
21663;SDS011;10993;52.510;13.456;2024-02-26T03:44:57;8.23;;;4.93;;
21663;SDS011;10993;52.510;13.456;2024-02-26T03:49:58;9.70;;;5.35;;
21663;SDS011;10993;52.510;13.456;2024-02-26T03:55:00;11.03;;;5.73;;
21663;SDS011;10993;52.510;13.456;2024-02-26T04:00:00;10.40;;;5.73;;
21663;SDS011;10993;52.510;13.456;2024-02-26T04:05:01;9.77;;;5.43;;
21663;SDS011;10993;52.510;13.456;2024-02-26T04:10:03;13.35;;;6.38;;
21663;SDS011;10993;52.510;13.456;2024-02-26T04:15:05;12.10;;;7.03;;
21663;SDS011;10993;52.510;13.456;2024-02-26T04:20:07;11.52;;;6.68;;
21663;SDS011;10993;52.510;13.456;2024-02-26T04:25:09;12.25;;;6.75;;
21663;SDS011;10993;52.510;13.456;2024-02-26T04:30:10;10.88;;;6.57;;
21663;SDS011;10993;52.510;13.456;2024-02-26T04:35:11;12.32;;;7.28;;
21663;SDS011;10993;52.510;13.456;2024-02-26T04:40:13;14.73;;;7.35;;
21663;SDS011;10993;52.510;13.456;2024-02-26T04:45:13;12.27;;;7.43;;
21663;SDS011;10993;52.510;13.456;2024-02-26T04:50:14;13.85;;;7.85;;
21663;SDS011;10993;52.510;13.456;2024-02-26T04:55:15;14.60;;;7.88;;
21663;SDS011;10993;52.510;13.456;2024-02-26T05:00:16;12.23;;;8.07;;
21663;SDS011;10993;52.510;13.456;2024-02-26T05:05:17;13.45;;;7.53;;
21663;SDS011;10993;52.510;13.456;2024-02-26T05:10:19;12.73;;;7.63;;
21663;SDS011;10993;52.510;13.456;2024-02-26T05:15:20;13.60;;;8.13;;
21663;SDS011;10993;52.510;13.456;2024-02-26T05:20:20;16.20;;;8.77;;
21663;SDS011;10993;52.510;13.456;2024-02-26T05:25:21;16.90;;;8.52;;
21663;SDS011;10993;52.510;13.456;2024-02-26T05:30:22;21.92;;;9.73;;
21663;SDS011;10993;52.510;13.456;2024-02-26T05:35:22;19.77;;;9.80;;
21663;SDS011;10993;52.510;13.456;2024-02-26T05:40:24;18.73;;;9.80;;
21663;SDS011;10993;52.510;13.456;2024-02-26T05:45:24;16.93;;;8.83;;
21663;SDS011;10993;52.510;13.456;2024-02-26T05:50:24;18.98;;;9.40;;
21663;SDS011;10993;52.510;13.456;2024-02-26T05:55:26;21.38;;;9.48;;
21663;SDS011;10993;52.510;13.456;2024-02-26T06:00:27;17.98;;;9.27;;
21663;SDS011;10993;52.510;13.456;2024-02-26T06:05:27;19.48;;;9.38;;
21663;SDS011;10993;52.510;13.456;2024-02-26T06:10:29;19.95;;;10.68;;
21663;SDS011;10993;52.510;13.456;2024-02-26T06:15:30;19.57;;;11.27;;
21663;SDS011;10993;52.510;13.456;2024-02-26T06:20:30;18.35;;;10.05;;
21663;SDS011;10993;52.510;13.456;2024-02-26T06:25:35;22.85;;;11.45;;
21663;SDS011;10993;52.510;13.456;2024-02-26T06:30:35;20.58;;;11.45;;
21663;SDS011;10993;52.510;13.456;2024-02-26T06:35:36;22.08;;;11.10;;
21663;SDS011;10993;52.510;13.456;2024-02-26T06:40:37;26.92;;;13.20;;
21663;SDS011;10993;52.510;13.456;2024-02-26T06:45:37;21.23;;;12.30;;
21663;SDS011;10993;52.510;13.456;2024-02-26T06:50:38;22.40;;;11.38;;
21663;SDS011;10993;52.510;13.456;2024-02-26T06:55:40;19.83;;;11.80;;
21663;SDS011;10993;52.510;13.456;2024-02-26T07:00:40;16.45;;;10.13;;
21663;SDS011;10993;52.510;13.456;2024-02-26T07:05:41;16.10;;;9.52;;
21663;SDS011;10993;52.510;13.456;2024-02-26T07:10:42;16.90;;;9.93;;
21663;SDS011;10993;52.510;13.456;2024-02-26T07:15:43;16.00;;;9.38;;
21663;SDS011;10993;52.510;13.456;2024-02-26T07:20:43;15.45;;;10.02;;
21663;SDS011;10993;52.510;13.456;2024-02-26T07:25:45;14.52;;;9.18;;
21663;SDS011;10993;52.510;13.456;2024-02-26T07:30:50;16.98;;;9.85;;
21663;SDS011;10993;52.510;13.456;2024-02-26T07:35:50;15.25;;;9.10;;
21663;SDS011;10993;52.510;13.456;2024-02-26T07:40:53;17.60;;;9.88;;
21663;SDS011;10993;52.510;13.456;2024-02-26T07:45:54;17.48;;;10.23;;
21663;SDS011;10993;52.510;13.456;2024-02-26T07:50:54;19.67;;;9.40;;
21663;SDS011;10993;52.510;13.456;2024-02-26T07:55:56;16.48;;;9.93;;
21663;SDS011;10993;52.510;13.456;2024-02-26T08:00:56;18.92;;;9.85;;
21663;SDS011;10993;52.510;13.456;2024-02-26T08:05:57;16.70;;;10.65;;
21663;SDS011;10993;52.510;13.456;2024-02-26T08:10:59;15.32;;;9.90;;
21663;SDS011;10993;52.510;13.456;2024-02-26T08:15:59;16.50;;;10.45;;
21663;SDS011;10993;52.510;13.456;2024-02-26T08:21:00;21.73;;;12.63;;
21663;SDS011;10993;52.510;13.456;2024-02-26T08:26:01;20.13;;;12.20;;
21663;SDS011;10993;52.510;13.456;2024-02-26T08:31:04;19.98;;;11.90;;
21663;SDS011;10993;52.510;13.456;2024-02-26T08:36:04;19.70;;;12.27;;
21663;SDS011;10993;52.510;13.456;2024-02-26T08:41:06;17.08;;;10.80;;
21663;SDS011;10993;52.510;13.456;2024-02-26T08:46:10;17.83;;;10.27;;
21663;SDS011;10993;52.510;13.456;2024-02-26T08:51:12;23.08;;;13.15;;
21663;SDS011;10993;52.510;13.456;2024-02-26T08:56:14;16.13;;;10.90;;
21663;SDS011;10993;52.510;13.456;2024-02-26T09:01:16;17.02;;;9.82;;
21663;SDS011;10993;52.510;13.456;2024-02-26T09:06:17;16.05;;;10.50;;
21663;SDS011;10993;52.510;13.456;2024-02-26T09:11:18;17.58;;;11.10;;
21663;SDS011;10993;52.510;13.456;2024-02-26T09:16:19;23.88;;;13.60;;
21663;SDS011;10993;52.510;13.456;2024-02-26T09:21:19;23.73;;;12.70;;
21663;SDS011;10993;52.510;13.456;2024-02-26T09:26:24;28.92;;;13.65;;
21663;SDS011;10993;52.510;13.456;2024-02-26T09:31:24;17.70;;;10.32;;
21663;SDS011;10993;52.510;13.456;2024-02-26T09:36:25;19.23;;;10.57;;
21663;SDS011;10993;52.510;13.456;2024-02-26T09:41:27;27.58;;;13.70;;
21663;SDS011;10993;52.510;13.456;2024-02-26T09:46:29;19.75;;;11.82;;
21663;SDS011;10993;52.510;13.456;2024-02-26T09:51:30;19.23;;;11.55;;
21663;SDS011;10993;52.510;13.456;2024-02-26T09:56:33;15.00;;;9.57;;
21663;SDS011;10993;52.510;13.456;2024-02-26T10:01:34;15.18;;;9.25;;
21663;SDS011;10993;52.510;13.456;2024-02-26T10:06:35;13.85;;;8.40;;
21663;SDS011;10993;52.510;13.456;2024-02-26T10:11:38;15.07;;;8.80;;
21663;SDS011;10993;52.510;13.456;2024-02-26T10:16:43;15.73;;;9.07;;
21663;SDS011;10993;52.510;13.456;2024-02-26T10:21:43;13.87;;;8.70;;
21663;SDS011;10993;52.510;13.456;2024-02-26T10:26:46;16.67;;;8.60;;
21663;SDS011;10993;52.510;13.456;2024-02-26T10:31:47;14.50;;;7.95;;
21663;SDS011;10993;52.510;13.456;2024-02-26T10:36:48;13.52;;;8.68;;
21663;SDS011;10993;52.510;13.456;2024-02-26T10:41:50;12.60;;;7.95;;
21663;SDS011;10993;52.510;13.456;2024-02-26T10:46:51;11.57;;;7.53;;
21663;SDS011;10993;52.510;13.456;2024-02-26T10:51:53;19.02;;;8.30;;
21663;SDS011;10993;52.510;13.456;2024-02-26T10:56:58;12.30;;;7.40;;
21663;SDS011;10993;52.510;13.456;2024-02-26T11:02:00;12.60;;;7.25;;
21663;SDS011;10993;52.510;13.456;2024-02-26T11:07:01;10.00;;;6.53;;
21663;SDS011;10993;52.510;13.456;2024-02-26T11:12:03;10.98;;;6.65;;
21663;SDS011;10993;52.510;13.456;2024-02-26T11:17:09;13.30;;;6.22;;
21663;SDS011;10993;52.510;13.456;2024-02-26T11:22:11;12.55;;;6.78;;
21663;SDS011;10993;52.510;13.456;2024-02-26T11:27:13;10.43;;;6.20;;
21663;SDS011;10993;52.510;13.456;2024-02-26T11:32:17;9.68;;;6.32;;
21663;SDS011;10993;52.510;13.456;2024-02-26T11:37:18;9.07;;;6.18;;
21663;SDS011;10993;52.510;13.456;2024-02-26T11:42:23;11.23;;;7.07;;
21663;SDS011;10993;52.510;13.456;2024-02-26T11:47:28;12.13;;;7.50;;
21663;SDS011;10993;52.510;13.456;2024-02-26T11:52:32;12.02;;;6.90;;
21663;SDS011;10993;52.510;13.456;2024-02-26T11:57:39;13.18;;;8.32;;
21663;SDS011;10993;52.510;13.456;2024-02-26T12:02:49;17.63;;;8.80;;
21663;SDS011;10993;52.510;13.456;2024-02-26T12:08:10;12.15;;;7.90;;
21663;SDS011;10993;52.510;13.456;2024-02-26T12:13:14;13.25;;;8.77;;
21663;SDS011;10993;52.510;13.456;2024-02-26T12:18:16;13.52;;;8.85;;
21663;SDS011;10993;52.510;13.456;2024-02-26T12:23:18;19.70;;;9.30;;
21663;SDS011;10993;52.510;13.456;2024-02-26T12:28:19;14.18;;;8.70;;
21663;SDS011;10993;52.510;13.456;2024-02-26T12:33:20;13.73;;;9.02;;
21663;SDS011;10993;52.510;13.456;2024-02-26T12:38:20;13.07;;;8.63;;
21663;SDS011;10993;52.510;13.456;2024-02-26T12:43:22;14.35;;;8.95;;
21663;SDS011;10993;52.510;13.456;2024-02-26T12:48:22;15.00;;;9.50;;
21663;SDS011;10993;52.510;13.456;2024-02-26T12:53:23;12.57;;;7.35;;
21663;SDS011;10993;52.510;13.456;2024-02-26T12:58:26;12.25;;;7.45;;
21663;SDS011;10993;52.510;13.456;2024-02-26T13:03:27;12.98;;;6.47;;
21663;SDS011;10993;52.510;13.456;2024-02-26T13:08:28;9.73;;;6.88;;
21663;SDS011;10993;52.510;13.456;2024-02-26T13:13:30;12.73;;;6.88;;
21663;SDS011;10993;52.510;13.456;2024-02-26T13:18:31;9.73;;;5.72;;
21663;SDS011;10993;52.510;13.456;2024-02-26T13:23:31;11.02;;;5.55;;
21663;SDS011;10993;52.510;13.456;2024-02-26T13:28:33;11.43;;;5.55;;
21663;SDS011;10993;52.510;13.456;2024-02-26T13:33:34;9.10;;;5.40;;
21663;SDS011;10993;52.510;13.456;2024-02-26T13:38:34;10.15;;;5.68;;
21663;SDS011;10993;52.510;13.456;2024-02-26T13:43:36;11.93;;;5.25;;
21663;SDS011;10993;52.510;13.456;2024-02-26T13:48:36;12.18;;;5.45;;
21663;SDS011;10993;52.510;13.456;2024-02-26T13:53:37;12.57;;;6.47;;
21663;SDS011;10993;52.510;13.456;2024-02-26T13:58:38;9.25;;;5.55;;
21663;SDS011;10993;52.510;13.456;2024-02-26T14:03:39;9.10;;;5.07;;
21663;SDS011;10993;52.510;13.456;2024-02-26T14:08:39;10.93;;;5.10;;
21663;SDS011;10993;52.510;13.456;2024-02-26T14:13:41;9.65;;;5.50;;
21663;SDS011;10993;52.510;13.456;2024-02-26T14:18:41;11.52;;;5.95;;
21663;SDS011;10993;52.510;13.456;2024-02-26T14:23:44;9.95;;;5.95;;
21663;SDS011;10993;52.510;13.456;2024-02-26T14:28:46;10.68;;;5.90;;
21663;SDS011;10993;52.510;13.456;2024-02-26T14:33:46;12.85;;;6.10;;
21663;SDS011;10993;52.510;13.456;2024-02-26T14:38:48;12.30;;;7.00;;
21663;SDS011;10993;52.510;13.456;2024-02-26T14:43:49;11.18;;;6.07;;
21663;SDS011;10993;52.510;13.456;2024-02-26T14:48:50;12.18;;;5.50;;
21663;SDS011;10993;52.510;13.456;2024-02-26T14:53:50;12.77;;;5.75;;
21663;SDS011;10993;52.510;13.456;2024-02-26T14:58:52;10.85;;;6.05;;
21663;SDS011;10993;52.510;13.456;2024-02-26T15:03:52;9.75;;;6.45;;
21663;SDS011;10993;52.510;13.456;2024-02-26T15:08:52;12.35;;;6.20;;
21663;SDS011;10993;52.510;13.456;2024-02-26T15:13:54;12.75;;;6.90;;
21663;SDS011;10993;52.510;13.456;2024-02-26T15:18:54;11.35;;;6.75;;
21663;SDS011;10993;52.510;13.456;2024-02-26T15:23:55;11.57;;;6.28;;
21663;SDS011;10993;52.510;13.456;2024-02-26T15:28:57;11.93;;;6.03;;
21663;SDS011;10993;52.510;13.456;2024-02-26T15:33:57;15.07;;;9.00;;
21663;SDS011;10993;52.510;13.456;2024-02-26T15:38:57;12.05;;;7.13;;
21663;SDS011;10993;52.510;13.456;2024-02-26T15:43:59;14.77;;;7.90;;
21663;SDS011;10993;52.510;13.456;2024-02-26T15:49:00;13.70;;;7.50;;
21663;SDS011;10993;52.510;13.456;2024-02-26T15:54:00;14.40;;;7.28;;
21663;SDS011;10993;52.510;13.456;2024-02-26T15:59:03;13.60;;;7.47;;
21663;SDS011;10993;52.510;13.456;2024-02-26T16:04:03;14.98;;;8.63;;
21663;SDS011;10993;52.510;13.456;2024-02-26T16:09:04;18.45;;;9.20;;
21663;SDS011;10993;52.510;13.456;2024-02-26T16:14:08;17.02;;;8.50;;
21663;SDS011;10993;52.510;13.456;2024-02-26T16:19:13;19.48;;;9.30;;
21663;SDS011;10993;52.510;13.456;2024-02-26T16:24:16;15.38;;;9.65;;
21663;SDS011;10993;52.510;13.456;2024-02-26T16:29:18;23.15;;;9.55;;
21663;SDS011;10993;52.510;13.456;2024-02-26T16:34:20;16.30;;;10.05;;
21663;SDS011;10993;52.510;13.456;2024-02-26T16:39:20;15.05;;;9.68;;
21663;SDS011;10993;52.510;13.456;2024-02-26T16:44:22;16.45;;;9.45;;
21663;SDS011;10993;52.510;13.456;2024-02-26T16:49:22;18.30;;;9.90;;
21663;SDS011;10993;52.510;13.456;2024-02-26T16:54:23;18.38;;;10.90;;
21663;SDS011;10993;52.510;13.456;2024-02-26T16:59:25;19.10;;;10.77;;
21663;SDS011;10993;52.510;13.456;2024-02-26T17:04:28;17.17;;;9.85;;
21663;SDS011;10993;52.510;13.456;2024-02-26T17:09:28;18.70;;;9.23;;
21663;SDS011;10993;52.510;13.456;2024-02-26T17:14:31;14.65;;;8.90;;
21663;SDS011;10993;52.510;13.456;2024-02-26T17:19:31;19.23;;;11.02;;
21663;SDS011;10993;52.510;13.456;2024-02-26T17:24:35;19.25;;;10.50;;
21663;SDS011;10993;52.510;13.456;2024-02-26T17:29:37;22.65;;;11.18;;
21663;SDS011;10993;52.510;13.456;2024-02-26T17:34:37;27.92;;;13.25;;
21663;SDS011;10993;52.510;13.456;2024-02-26T17:39:38;24.42;;;12.38;;
21663;SDS011;10993;52.510;13.456;2024-02-26T17:44:39;25.77;;;13.15;;
21663;SDS011;10993;52.510;13.456;2024-02-26T17:49:40;32.97;;;13.88;;
21663;SDS011;10993;52.510;13.456;2024-02-26T17:54:40;28.25;;;14.70;;
21663;SDS011;10993;52.510;13.456;2024-02-26T17:59:42;31.60;;;13.95;;
21663;SDS011;10993;52.510;13.456;2024-02-26T18:04:42;29.58;;;14.32;;
21663;SDS011;10993;52.510;13.456;2024-02-26T18:09:44;28.45;;;13.70;;
21663;SDS011;10993;52.510;13.456;2024-02-26T18:14:45;28.00;;;13.13;;
21663;SDS011;10993;52.510;13.456;2024-02-26T18:19:46;23.83;;;10.93;;
21663;SDS011;10993;52.510;13.456;2024-02-26T18:24:46;27.17;;;12.18;;
21663;SDS011;10993;52.510;13.456;2024-02-26T18:29:48;18.48;;;10.90;;
21663;SDS011;10993;52.510;13.456;2024-02-26T18:34:48;21.73;;;11.23;;
21663;SDS011;10993;52.510;13.456;2024-02-26T18:39:49;18.83;;;10.68;;
21663;SDS011;10993;52.510;13.456;2024-02-26T18:44:51;20.08;;;10.27;;
21663;SDS011;10993;52.510;13.456;2024-02-26T18:49:53;16.73;;;9.45;;
21663;SDS011;10993;52.510;13.456;2024-02-26T18:54:54;17.80;;;10.75;;
21663;SDS011;10993;52.510;13.456;2024-02-26T18:59:56;15.85;;;8.88;;
21663;SDS011;10993;52.510;13.456;2024-02-26T19:04:56;18.67;;;10.30;;
21663;SDS011;10993;52.510;13.456;2024-02-26T19:09:57;18.38;;;8.27;;
21663;SDS011;10993;52.510;13.456;2024-02-26T19:14:58;15.50;;;8.75;;
21663;SDS011;10993;52.510;13.456;2024-02-26T19:20:11;21.48;;;10.77;;
21663;SDS011;10993;52.510;13.456;2024-02-26T19:26:22;18.48;;;9.27;;
21663;SDS011;10993;52.510;13.456;2024-02-26T19:31:32;14.35;;;8.38;;
21663;SDS011;10993;52.510;13.456;2024-02-26T19:48:12;13.90;;;8.20;;
21663;SDS011;10993;52.510;13.456;2024-02-26T19:53:54;17.17;;;8.95;;
21663;SDS011;10993;52.510;13.456;2024-02-26T20:04:50;14.20;;;7.60;;
21663;SDS011;10993;52.510;13.456;2024-02-26T20:09:53;13.98;;;7.32;;
21663;SDS011;10993;52.510;13.456;2024-02-26T20:14:58;15.63;;;7.45;;
21663;SDS011;10993;52.510;13.456;2024-02-26T20:26:31;15.52;;;7.60;;
21663;SDS011;10993;52.510;13.456;2024-02-26T20:37:53;14.98;;;7.75;;
21663;SDS011;10993;52.510;13.456;2024-02-26T20:42:55;12.82;;;7.50;;
21663;SDS011;10993;52.510;13.456;2024-02-26T20:48:36;16.05;;;7.15;;
21663;SDS011;10993;52.510;13.456;2024-02-26T20:53:38;15.73;;;8.45;;
21663;SDS011;10993;52.510;13.456;2024-02-26T20:58:44;17.40;;;8.05;;
21663;SDS011;10993;52.510;13.456;2024-02-26T21:03:50;13.75;;;7.22;;
21663;SDS011;10993;52.510;13.456;2024-02-26T21:09:25;15.68;;;7.90;;
21663;SDS011;10993;52.510;13.456;2024-02-26T21:25:50;16.48;;;7.53;;
21663;SDS011;10993;52.510;13.456;2024-02-26T21:30:51;15.82;;;9.27;;
21663;SDS011;10993;52.510;13.456;2024-02-26T21:35:58;21.13;;;9.40;;
21663;SDS011;10993;52.510;13.456;2024-02-26T21:40:59;15.35;;;8.05;;
21663;SDS011;10993;52.510;13.456;2024-02-26T21:46:00;19.83;;;9.25;;
21663;SDS011;10993;52.510;13.456;2024-02-26T21:51:04;14.20;;;7.55;;
21663;SDS011;10993;52.510;13.456;2024-02-26T21:56:05;14.75;;;8.52;;
21663;SDS011;10993;52.510;13.456;2024-02-26T22:01:07;11.82;;;6.85;;
21663;SDS011;10993;52.510;13.456;2024-02-26T22:06:09;13.48;;;7.85;;
21663;SDS011;10993;52.510;13.456;2024-02-26T22:11:09;12.63;;;6.57;;
21663;SDS011;10993;52.510;13.456;2024-02-26T22:16:09;13.18;;;6.85;;
21663;SDS011;10993;52.510;13.456;2024-02-26T22:21:11;13.90;;;6.32;;
21663;SDS011;10993;52.510;13.456;2024-02-26T22:26:12;11.00;;;6.53;;
21663;SDS011;10993;52.510;13.456;2024-02-26T22:31:12;12.18;;;6.43;;
21663;SDS011;10993;52.510;13.456;2024-02-26T22:36:14;12.15;;;6.85;;
21663;SDS011;10993;52.510;13.456;2024-02-26T22:41:14;12.15;;;7.18;;
21663;SDS011;10993;52.510;13.456;2024-02-26T22:46:15;11.70;;;6.55;;
21663;SDS011;10993;52.510;13.456;2024-02-26T22:51:17;12.88;;;6.63;;
21663;SDS011;10993;52.510;13.456;2024-02-26T22:56:17;13.10;;;6.32;;
21663;SDS011;10993;52.510;13.456;2024-02-26T23:01:17;10.93;;;5.60;;
21663;SDS011;10993;52.510;13.456;2024-02-26T23:06:19;13.65;;;5.78;;
21663;SDS011;10993;52.510;13.456;2024-02-26T23:11:19;11.05;;;6.00;;
21663;SDS011;10993;52.510;13.456;2024-02-26T23:16:20;13.88;;;6.75;;
21663;SDS011;10993;52.510;13.456;2024-02-26T23:21:22;11.35;;;6.05;;
21663;SDS011;10993;52.510;13.456;2024-02-26T23:26:22;11.63;;;6.25;;
21663;SDS011;10993;52.510;13.456;2024-02-26T23:31:23;11.35;;;6.10;;
21663;SDS011;10993;52.510;13.456;2024-02-26T23:36:25;11.20;;;6.40;;
21663;SDS011;10993;52.510;13.456;2024-02-26T23:41:25;10.15;;;6.38;;
21663;SDS011;10993;52.510;13.456;2024-02-26T23:46:31;11.68;;;5.75;;
21663;SDS011;10993;52.510;13.456;2024-02-26T23:51:33;12.73;;;6.22;;
21663;SDS011;10993;52.510;13.456;2024-02-26T23:56:34;10.32;;;5.70;;
